Time;durP1;ratioP1;P1;durP2;ratioP2;P2;SDS_P1;SDS_P2;PMS_P1;PMS_P2;Temp;Humidity;BMP_temperature;BMP_pressure;BME280_temperature;BME280_humidity;BME280_pressure;Samples;Min_cycle;Max_cycle;Signal;HPM_P1;HPM_P2
2024/02/06 00:00:25;;;;;;;6.75;3.85;;;8.50;99.90;;;;;;4975992;28;20031;-62
2024/02/06 00:02:51;;;;;;;9.23;4.03;;;8.50;99.90;;;;;;4957682;28;20022;-62
2024/02/06 00:05:17;;;;;;;9.90;3.70;;;8.40;99.90;;;;;;4911533;28;20402;-63
2024/02/06 00:07:42;;;;;;;11.18;3.75;;;8.50;99.90;;;;;;4916907;28;20037;-61
2024/02/06 00:10:09;;;;;;;7.72;3.35;;;8.50;99.90;;;;;;4908134;28;21513;-60
2024/02/06 00:12:35;;;;;;;8.20;3.58;;;8.50;99.90;;;;;;4955875;28;20406;-63
2024/02/06 00:15:00;;;;;;;6.68;4.10;;;8.50;99.90;;;;;;4924322;28;20061;-62
2024/02/06 00:17:26;;;;;;;8.32;3.55;;;8.50;99.90;;;;;;4896693;28;20495;-62
2024/02/06 00:19:51;;;;;;;7.88;3.50;;;8.50;99.90;;;;;;4920954;28;20665;-61
2024/02/06 00:22:17;;;;;;;7.53;3.85;;;8.50;99.90;;;;;;4923930;28;20626;-61
2024/02/06 00:24:43;;;;;;;8.73;4.82;;;8.50;99.90;;;;;;4981936;28;20032;-62
2024/02/06 00:27:08;;;;;;;7.47;3.97;;;8.50;99.90;;;;;;4951963;28;20034;-62
2024/02/06 00:29:34;;;;;;;6.97;4.00;;;8.60;99.90;;;;;;4921075;28;20118;-62
2024/02/06 00:31:59;;;;;;;5.60;4.03;;;8.60;99.90;;;;;;4892190;28;20030;-62
2024/02/06 00:34:25;;;;;;;7.28;3.42;;;8.60;99.90;;;;;;4902608;28;20038;-62
2024/02/06 00:36:51;;;;;;;5.28;3.35;;;8.60;99.90;;;;;;4960709;28;20030;-64
2024/02/06 00:39:16;;;;;;;7.57;4.18;;;8.60;99.90;;;;;;4947020;28;20049;-61
2024/02/06 00:41:43;;;;;;;8.68;4.07;;;8.60;99.90;;;;;;4921794;28;20065;-61
2024/02/06 00:44:08;;;;;;;7.85;3.75;;;8.60;99.90;;;;;;4932558;28;20150;-63
2024/02/06 00:46:34;;;;;;;8.68;4.43;;;8.60;99.90;;;;;;4898076;28;20022;-62
2024/02/06 00:48:59;;;;;;;9.02;4.40;;;8.60;99.90;;;;;;4906316;28;21311;-62
2024/02/06 00:51:25;;;;;;;5.60;4.18;;;8.60;99.90;;;;;;4978107;28;20077;-63
2024/02/06 00:53:50;;;;;;;8.07;4.07;;;8.60;99.90;;;;;;4933404;28;20026;-62
2024/02/06 00:56:16;;;;;;;10.05;4.20;;;8.70;99.90;;;;;;4946858;28;20074;-61
2024/02/06 00:58:42;;;;;;;9.57;3.72;;;8.60;99.90;;;;;;4913970;28;20040;-61
2024/02/06 01:01:07;;;;;;;6.72;3.88;;;8.60;99.90;;;;;;4937361;28;21408;-61
2024/02/06 01:03:33;;;;;;;10.73;3.90;;;8.60;99.90;;;;;;4984565;28;20031;-61
2024/02/06 01:05:58;;;;;;;7.28;4.13;;;8.60;99.90;;;;;;4946928;28;20038;-61
2024/02/06 01:08:24;;;;;;;8.23;3.92;;;8.60;99.90;;;;;;4899809;28;20739;-62
2024/02/06 01:10:49;;;;;;;10.45;4.05;;;8.60;99.90;;;;;;4930160;28;20023;-61
2024/02/06 01:13:15;;;;;;;6.68;3.85;;;8.70;99.90;;;;;;4940791;28;22502;-60
2024/02/06 01:15:40;;;;;;;12.43;4.22;;;8.70;99.90;;;;;;4998343;22;20423;-55
2024/02/06 01:18:06;;;;;;;11.07;3.75;;;8.70;99.90;;;;;;4941316;28;20539;-57
2024/02/06 01:20:31;;;;;;;11.50;4.78;;;8.70;99.90;;;;;;4937003;28;20045;-58
2024/02/06 01:22:58;;;;;;;6.95;3.90;;;8.70;99.90;;;;;;4930241;28;20462;-58
2024/02/06 01:25:24;;;;;;;13.55;4.53;;;8.70;99.90;;;;;;4935355;28;20031;-57
2024/02/06 01:27:49;;;;;;;8.57;4.07;;;8.70;99.90;;;;;;4939047;28;20037;-62
2024/02/06 01:30:15;;;;;;;4.82;3.60;;;8.70;99.90;;;;;;4932825;28;20033;-58
2024/02/06 01:32:41;;;;;;;8.52;3.67;;;8.70;99.90;;;;;;4930539;28;20471;-57
2024/02/06 01:35:07;;;;;;;12.13;4.43;;;8.70;99.90;;;;;;4927908;28;20061;-58
2024/02/06 01:37:32;;;;;;;12.93;4.57;;;8.70;99.90;;;;;;4938438;28;20041;-55
2024/02/06 01:39:58;;;;;;;8.45;4.07;;;8.70;99.90;;;;;;4926899;28;20041;-62
2024/02/06 01:42:23;;;;;;;7.70;4.13;;;8.70;99.90;;;;;;4956383;28;21107;-57
2024/02/06 01:44:49;;;;;;;7.45;3.60;;;8.70;99.90;;;;;;4925684;28;20033;-56
2024/02/06 01:47:14;;;;;;;8.13;3.90;;;8.70;99.90;;;;;;4921980;28;20029;-54
2024/02/06 01:49:41;;;;;;;9.95;3.50;;;8.70;99.90;;;;;;4924451;28;20035;-62
2024/02/06 01:52:08;;;;;;;10.55;3.88;;;8.70;99.90;;;;;;4902590;28;21547;-54
2024/02/06 01:54:34;;;;;;;8.35;3.40;;;8.70;99.90;;;;;;4971668;28;20502;-54
2024/02/06 01:57:00;;;;;;;10.57;3.60;;;8.70;99.90;;;;;;4919756;28;20434;-57
2024/02/06 01:59:26;;;;;;;8.13;4.30;;;8.70;99.90;;;;;;4902702;28;20113;-57
2024/02/06 02:01:52;;;;;;;9.80;3.83;;;8.60;99.90;;;;;;4900032;28;20100;-58
2024/02/06 02:04:18;;;;;;;7.78;4.20;;;8.70;99.90;;;;;;4922941;28;20027;-60
2024/02/06 02:06:44;;;;;;;6.93;3.15;;;8.70;99.90;;;;;;4957427;28;20022;-56
2024/02/06 02:09:09;;;;;;;11.50;3.97;;;8.70;99.90;;;;;;4918313;28;20712;-54
2024/02/06 02:11:35;;;;;;;14.27;3.67;;;8.70;99.90;;;;;;4918053;28;20061;-55
2024/02/06 02:14:01;;;;;;;10.45;4.07;;;8.70;99.90;;;;;;4914119;28;22276;-53
2024/02/06 02:16:27;;;;;;;10.18;4.07;;;8.70;99.90;;;;;;4934993;28;20054;-57
2024/02/06 02:18:53;;;;;;;7.57;3.45;;;8.70;99.90;;;;;;4937080;28;20117;-62
2024/02/06 02:21:18;;;;;;;8.55;3.85;;;8.70;99.90;;;;;;4941384;28;20678;-56
2024/02/06 02:23:46;;;;;;;9.30;4.15;;;8.70;99.90;;;;;;4926495;28;20064;-55
2024/02/06 02:26:13;;;;;;;8.52;4.38;;;8.70;99.90;;;;;;4900002;28;20582;-54
2024/02/06 02:28:43;;;;;;;12.05;4.35;;;8.70;99.90;;;;;;4928391;28;20165;-57
2024/02/06 02:31:09;;;;;;;13.15;4.75;;;8.70;99.90;;;;;;4915448;28;21068;-59
2024/02/06 02:33:36;;;;;;;8.68;4.22;;;8.70;99.90;;;;;;4964425;28;20026;-53
2024/02/06 02:36:10;;;;;;;11.88;4.00;;;8.70;99.90;;;;;;4913420;28;20030;-56
2024/02/06 02:38:39;;;;;;;7.80;3.78;;;8.70;99.90;;;;;;4926030;28;20025;-57
2024/02/06 02:41:04;;;;;;;8.63;4.07;;;8.70;99.90;;;;;;4879718;28;20026;-53
2024/02/06 02:43:30;;;;;;;6.75;4.05;;;8.70;99.90;;;;;;4913671;28;20033;-55
2024/02/06 02:45:58;;;;;;;9.30;3.40;;;8.70;99.90;;;;;;4914870;28;20217;-61
2024/02/06 02:48:23;;;;;;;9.63;3.65;;;8.70;99.90;;;;;;4945007;28;21393;-55
2024/02/06 02:50:49;;;;;;;8.40;4.25;;;8.70;99.90;;;;;;4905718;28;20070;-58
2024/02/06 02:53:14;;;;;;;13.00;4.07;;;8.70;99.90;;;;;;4913511;28;20039;-56
2024/02/06 02:55:40;;;;;;;7.80;4.13;;;8.70;99.90;;;;;;4899336;28;20062;-60
2024/02/06 02:58:05;;;;;;;9.32;3.70;;;8.70;99.90;;;;;;4884890;28;20026;-56
2024/02/06 03:00:33;;;;;;;10.10;3.97;;;8.70;99.90;;;;;;4945494;28;20033;-55
2024/02/06 03:02:58;;;;;;;7.00;3.47;;;8.70;99.90;;;;;;4897088;28;20054;-53
2024/02/06 03:05:24;;;;;;;7.13;3.88;;;8.70;99.90;;;;;;4887195;28;20160;-55
2024/02/06 03:07:49;;;;;;;11.75;3.45;;;8.70;99.90;;;;;;4866891;28;20168;-52
2024/02/06 03:10:15;;;;;;;11.35;3.58;;;8.70;99.90;;;;;;4891803;28;21637;-54
2024/02/06 03:12:41;;;;;;;9.57;4.72;;;8.70;99.90;;;;;;4943877;28;20014;-53
2024/02/06 03:15:06;;;;;;;8.27;3.72;;;8.70;99.90;;;;;;4887552;28;20400;-54
2024/02/06 03:17:32;;;;;;;7.75;4.00;;;8.70;99.90;;;;;;4891674;28;20127;-54
2024/02/06 03:19:58;;;;;;;9.85;3.90;;;8.70;99.90;;;;;;4900021;28;20033;-56
2024/02/06 03:22:26;;;;;;;5.07;3.35;;;8.70;99.90;;;;;;4907229;28;20031;-55
2024/02/06 03:24:52;;;;;;;9.65;4.30;;;8.80;99.90;;;;;;4932084;28;20019;-60
2024/02/06 03:27:18;;;;;;;15.10;4.18;;;8.70;99.90;;;;;;4852398;28;20022;-58
2024/02/06 03:29:43;;;;;;;9.65;3.72;;;8.70;99.90;;;;;;4919475;28;20044;-56
2024/02/06 03:32:09;;;;;;;10.05;3.67;;;8.70;99.90;;;;;;4885245;28;20104;-54
2024/02/06 03:34:35;;;;;;;10.35;3.90;;;8.80;99.90;;;;;;4919130;28;20104;-53
2024/02/06 03:37:01;;;;;;;10.00;3.88;;;8.80;99.90;;;;;;4858409;28;20655;-61
2024/02/06 03:39:27;;;;;;;8.02;4.10;;;8.80;99.90;;;;;;4944546;28;20030;-56
2024/02/06 03:41:53;;;;;;;14.90;4.28;;;8.80;99.90;;;;;;4894912;28;20056;-54
2024/02/06 03:44:18;;;;;;;10.93;3.30;;;8.80;99.90;;;;;;4913696;28;20511;-57
2024/02/06 03:46:44;;;;;;;9.82;3.42;;;8.80;99.90;;;;;;4898545;28;20110;-61
2024/02/06 03:49:10;;;;;;;11.55;4.25;;;8.80;99.90;;;;;;4884406;28;21578;-54
2024/02/06 03:51:35;;;;;;;8.43;3.75;;;8.80;99.90;;;;;;4951074;28;20034;-56
2024/02/06 03:54:01;;;;;;;11.77;3.47;;;8.80;99.90;;;;;;4896535;28;20026;-52
2024/02/06 03:56:27;;;;;;;8.25;3.50;;;8.80;99.90;;;;;;4908466;28;20022;-57
2024/02/06 03:58:52;;;;;;;12.07;3.97;;;8.80;99.90;;;;;;4872253;28;20950;-57
2024/02/06 04:01:18;;;;;;;11.70;3.50;;;8.80;99.90;;;;;;4891753;28;20667;-58
2024/02/06 04:03:45;;;;;;;8.38;3.80;;;8.80;99.90;;;;;;4964051;28;20541;-56
2024/02/06 04:06:14;;;;;;;7.57;3.83;;;8.80;99.90;;;;;;4887850;28;20030;-54
2024/02/06 04:08:41;;;;;;;9.70;3.92;;;8.80;99.90;;;;;;4901112;28;20018;-54
2024/02/06 04:11:07;;;;;;;7.80;3.47;;;8.80;99.90;;;;;;4918444;28;21008;-56
2024/02/06 04:13:32;;;;;;;11.05;3.80;;;8.80;99.90;;;;;;4920333;28;20026;-57
2024/02/06 04:15:58;;;;;;;7.35;3.80;;;8.80;99.90;;;;;;4901784;28;20046;-61
2024/02/06 04:18:24;;;;;;;9.57;3.22;;;8.80;99.90;;;;;;4931099;28;20057;-58
2024/02/06 04:20:49;;;;;;;8.00;3.47;;;8.90;99.90;;;;;;4885369;28;20518;-55
2024/02/06 04:23:15;;;;;;;9.63;3.58;;;8.90;99.90;;;;;;4905417;28;20022;-55
2024/02/06 04:25:42;;;;;;;7.68;3.28;;;8.90;99.90;;;;;;4912321;28;20077;-61
2024/02/06 04:28:07;;;;;;;9.80;3.28;;;8.90;99.90;;;;;;4915924;28;20034;-54
2024/02/06 04:30:33;;;;;;;9.18;4.47;;;8.90;99.90;;;;;;4944107;28;20040;-55
2024/02/06 04:32:59;;;;;;;13.95;4.03;;;8.90;99.90;;;;;;4902487;28;20030;-58
2024/02/06 04:35:24;;;;;;;7.25;3.60;;;8.90;99.90;;;;;;4877672;28;20031;-53
2024/02/06 04:37:50;;;;;;;13.05;3.95;;;8.90;99.90;;;;;;4890327;28;20026;-60
2024/02/06 04:40:15;;;;;;;7.93;2.85;;;8.90;99.90;;;;;;4928256;28;21563;-57
2024/02/06 04:42:41;;;;;;;6.68;3.10;;;8.90;99.90;;;;;;4943406;28;20491;-56
2024/02/06 04:45:07;;;;;;;13.13;3.70;;;8.90;99.90;;;;;;4875807;28;20152;-58
2024/02/06 04:47:33;;;;;;;4.50;2.78;;;8.90;99.90;;;;;;4872508;28;20038;-55
2024/02/06 04:49:58;;;;;;;7.03;3.63;;;8.90;99.90;;;;;;4875039;28;20380;-52
2024/02/06 04:52:24;;;;;;;9.70;3.40;;;8.90;99.90;;;;;;4925239;28;20470;-57
2024/02/06 04:54:50;;;;;;;13.40;3.83;;;8.90;99.90;;;;;;4955940;28;20022;-57
2024/02/06 04:57:15;;;;;;;7.63;3.55;;;8.90;99.90;;;;;;4883772;28;20386;-59
2024/02/06 04:59:41;;;;;;;7.97;3.35;;;8.90;99.90;;;;;;4883431;28;20029;-52
2024/02/06 05:02:08;;;;;;;7.72;2.92;;;9.00;99.90;;;;;;4904176;28;20035;-56
2024/02/06 05:04:34;;;;;;;9.13;3.22;;;9.00;99.90;;;;;;4915750;28;20387;-57
2024/02/06 05:06:59;;;;;;;9.00;3.70;;;8.90;99.90;;;;;;4922672;28;20027;-61
2024/02/06 05:09:25;;;;;;;7.45;3.65;;;8.90;99.90;;;;;;4913142;28;20049;-54
2024/02/06 05:11:51;;;;;;;10.10;3.30;;;9.00;99.90;;;;;;4870712;28;20036;-54
2024/02/06 05:14:16;;;;;;;9.10;3.88;;;9.00;99.90;;;;;;4885404;28;20026;-54
2024/02/06 05:16:42;;;;;;;9.57;3.25;;;8.90;99.90;;;;;;4899961;28;20611;-61
2024/02/06 05:19:13;;;;;;;13.88;3.28;;;9.00;99.90;;;;;;4889717;28;20081;-55
2024/02/06 05:21:41;;;;;;;7.85;3.55;;;9.00;99.90;;;;;;4930439;28;20637;-53
2024/02/06 05:24:10;;;;;;;12.27;3.00;;;9.00;99.90;;;;;;4867141;28;20035;-57
2024/02/06 05:26:36;;;;;;;7.45;3.30;;;9.00;99.90;;;;;;4947562;28;20043;-56
2024/02/06 05:29:01;;;;;;;11.00;3.17;;;9.00;99.90;;;;;;4953941;28;20497;-52
2024/02/06 05:31:27;;;;;;;10.27;3.03;;;9.00;99.90;;;;;;4972865;28;20022;-57
2024/02/06 05:33:52;;;;;;;9.63;3.53;;;9.00;99.90;;;;;;4939997;28;20026;-55
2024/02/06 05:36:18;;;;;;;5.05;3.17;;;9.10;99.90;;;;;;4947840;28;20023;-57
2024/02/06 05:38:43;;;;;;;11.00;3.63;;;9.00;99.90;;;;;;4940754;28;20034;-54
2024/02/06 05:41:12;;;;;;;8.02;3.20;;;9.00;99.90;;;;;;4951946;28;22188;-54
2024/02/06 05:43:39;;;;;;;7.20;3.28;;;9.00;99.90;;;;;;4980592;28;20102;-56
2024/02/06 05:46:05;;;;;;;7.63;3.38;;;9.00;99.90;;;;;;4951380;28;20460;-60
2024/02/06 05:48:30;;;;;;;10.02;3.15;;;9.00;99.90;;;;;;4951991;28;20038;-54
2024/02/06 05:50:56;;;;;;;14.27;3.38;;;9.00;99.90;;;;;;4932365;28;20026;-53
2024/02/06 05:53:21;;;;;;;7.40;3.38;;;9.00;99.90;;;;;;4939155;28;20023;-55
2024/02/06 05:55:47;;;;;;;11.45;3.47;;;9.00;99.90;;;;;;4969780;28;20061;-55
2024/02/06 05:58:13;;;;;;;10.00;3.33;;;9.00;99.90;;;;;;4940285;28;20030;-54
2024/02/06 06:00:38;;;;;;;7.15;3.17;;;9.00;99.90;;;;;;4930660;28;20025;-54
2024/02/06 06:03:04;;;;;;;13.60;3.85;;;9.00;99.90;;;;;;4924819;28;20053;-56
2024/02/06 06:05:30;;;;;;;6.57;3.15;;;9.00;99.90;;;;;;4923093;28;20044;-51
2024/02/06 06:07:56;;;;;;;11.55;3.47;;;9.00;99.90;;;;;;4913246;28;20488;-55
2024/02/06 06:10:21;;;;;;;16.25;4.78;;;9.00;99.90;;;;;;4976561;28;20050;-53
2024/02/06 06:12:47;;;;;;;8.38;3.22;;;9.00;99.90;;;;;;4955977;28;20069;-53
2024/02/06 06:15:14;;;;;;;8.95;3.42;;;9.00;99.90;;;;;;4907720;28;20061;-54
2024/02/06 06:17:40;;;;;;;9.48;3.05;;;9.10;99.90;;;;;;4921416;28;20034;-53
2024/02/06 06:20:06;;;;;;;13.45;3.30;;;9.10;99.90;;;;;;4911012;28;21438;-55
2024/02/06 06:22:31;;;;;;;10.35;3.90;;;9.10;99.90;;;;;;4960018;28;20054;-57
2024/02/06 06:24:57;;;;;;;11.75;4.32;;;9.10;99.90;;;;;;4924086;28;20110;-55
2024/02/06 06:27:22;;;;;;;8.98;4.30;;;9.10;99.90;;;;;;4910780;28;20116;-55
2024/02/06 06:29:48;;;;;;;12.80;3.85;;;9.10;99.90;;;;;;4918170;28;20169;-53
2024/02/06 06:32:14;;;;;;;12.68;4.43;;;9.10;99.90;;;;;;4925405;28;20042;-54
2024/02/06 06:34:40;;;;;;;8.73;3.15;;;9.10;99.90;;;;;;4972816;28;20019;-59
2024/02/06 06:37:06;;;;;;;14.05;4.35;;;9.10;99.90;;;;;;4913886;28;20072;-57
2024/02/06 06:39:32;;;;;;;9.32;3.78;;;9.10;99.90;;;;;;4937372;28;20554;-54
2024/02/06 06:41:58;;;;;;;10.75;4.10;;;9.10;99.90;;;;;;4902981;28;20057;-53
2024/02/06 06:44:23;;;;;;;12.13;3.33;;;9.20;99.90;;;;;;4916868;28;20022;-54
2024/02/06 06:46:50;;;;;;;13.02;3.40;;;9.10;99.90;;;;;;4948564;28;20030;-60
2024/02/06 06:49:16;;;;;;;12.18;4.05;;;9.10;99.90;;;;;;4959579;28;20045;-54
2024/02/06 06:51:43;;;;;;;12.30;3.83;;;9.20;99.90;;;;;;4947107;28;20038;-58
2024/02/06 06:54:08;;;;;;;6.93;3.00;;;9.10;99.90;;;;;;4938333;28;20041;-53
2024/02/06 06:56:34;;;;;;;10.45;3.75;;;9.10;99.90;;;;;;4930658;28;20038;-54
2024/02/06 06:58:59;;;;;;;7.63;2.58;;;9.10;99.90;;;;;;4936132;28;20068;-56
2024/02/06 07:01:25;;;;;;;8.27;2.80;;;9.10;99.90;;;;;;4983314;28;20038;-56
2024/02/06 07:03:50;;;;;;;10.05;3.42;;;9.10;99.90;;;;;;4944435;28;20034;-55
2024/02/06 07:06:17;;;;;;;14.52;3.78;;;9.10;99.90;;;;;;4934188;28;20076;-55
2024/02/06 07:08:43;;;;;;;9.27;3.20;;;9.10;99.90;;;;;;4928750;28;20414;-52
2024/02/06 07:11:09;;;;;;;9.95;3.53;;;9.10;99.90;;;;;;4929036;28;22385;-56
2024/02/06 07:13:35;;;;;;;7.55;3.45;;;9.10;99.90;;;;;;4947915;28;20084;-55
2024/02/06 07:16:01;;;;;;;10.63;4.10;;;9.10;99.90;;;;;;4965856;23;20108;-54
2024/02/06 07:18:26;;;;;;;7.85;3.95;;;9.00;99.90;;;;;;4954788;28;20030;-47
2024/02/06 07:20:52;;;;;;;9.88;4.20;;;9.00;99.90;;;;;;4937296;28;20679;-51
2024/02/06 07:23:17;;;;;;;16.10;4.30;;;9.00;99.90;;;;;;4929162;28;20033;-53
2024/02/06 07:25:43;;;;;;;12.00;4.28;;;9.00;99.90;;;;;;4990835;28;20022;-48
2024/02/06 07:28:09;;;;;;;15.05;5.05;;;9.00;99.90;;;;;;4923015;28;20030;-50
2024/02/06 07:30:34;;;;;;;11.18;3.33;;;9.00;99.90;;;;;;4951980;28;20041;-49
2024/02/06 07:33:00;;;;;;;10.20;4.18;;;9.00;99.90;;;;;;4941275;28;21500;-49
2024/02/06 07:35:25;;;;;;;16.63;6.65;;;8.90;99.90;;;;;;4938013;28;20084;-52
2024/02/06 07:37:51;;;;;;;12.40;4.18;;;8.90;99.90;;;;;;4920478;28;20042;-57
2024/02/06 07:40:17;;;;;;;13.00;3.72;;;8.90;99.90;;;;;;4934012;28;20437;-47
2024/02/06 07:42:44;;;;;;;7.88;3.22;;;8.90;99.90;;;;;;4944342;28;20045;-48
2024/02/06 07:45:10;;;;;;;12.50;4.63;;;8.90;99.90;;;;;;4924496;28;20024;-47
2024/02/06 07:47:35;;;;;;;9.25;4.40;;;8.80;99.90;;;;;;4934653;28;20383;-50
2024/02/06 07:50:02;;;;;;;11.55;3.63;;;8.90;99.90;;;;;;4925643;28;20058;-48
2024/02/06 07:52:28;;;;;;;15.30;4.07;;;8.80;99.90;;;;;;4964948;28;21668;-50
2024/02/06 07:54:53;;;;;;;6.15;3.13;;;8.80;99.90;;;;;;4945726;28;20037;-52
2024/02/06 07:57:20;;;;;;;8.95;2.80;;;8.80;99.90;;;;;;4943323;28;20029;-52
2024/02/06 07:59:46;;;;;;;11.02;3.72;;;8.80;99.90;;;;;;4939884;28;20030;-49
2024/02/06 08:02:12;;;;;;;12.57;3.65;;;8.80;99.90;;;;;;4943913;28;21211;-49
2024/02/06 08:04:37;;;;;;;12.10;4.32;;;8.70;99.90;;;;;;4998109;28;20038;-50
2024/02/06 08:07:03;;;;;;;13.75;3.88;;;8.70;99.90;;;;;;4950494;28;20024;-48
2024/02/06 08:09:29;;;;;;;10.80;3.78;;;8.70;99.90;;;;;;4950979;28;20030;-52
2024/02/06 08:11:54;;;;;;;7.53;2.97;;;8.70;99.90;;;;;;4946201;28;20081;-49
2024/02/06 08:14:20;;;;;;;7.10;2.50;;;8.70;99.90;;;;;;4928125;28;20436;-50
2024/02/06 08:16:46;;;;;;;5.75;2.65;;;8.60;99.90;;;;;;5000487;28;20238;-53
2024/02/06 08:19:13;;;;;;;10.77;3.08;;;8.70;99.90;;;;;;4928746;28;20076;-53
2024/02/06 08:21:39;;;;;;;7.57;2.83;;;8.60;99.90;;;;;;4932107;28;20018;-49
2024/02/06 08:24:05;;;;;;;8.18;2.80;;;8.70;99.90;;;;;;4931923;28;20359;-53
2024/02/06 08:26:31;;;;;;;8.73;2.70;;;8.70;99.90;;;;;;4954131;28;20021;-54
2024/02/06 08:28:57;;;;;;;4.13;2.63;;;8.70;99.90;;;;;;4901017;28;20030;-56
2024/02/06 08:31:22;;;;;;;4.35;2.47;;;8.70;99.90;;;;;;4968303;28;20537;-50
2024/02/06 08:33:50;;;;;;;8.30;2.47;;;8.70;99.90;;;;;;4947452;28;20509;-51
2024/02/06 08:36:17;;;;;;;10.07;2.95;;;8.70;99.90;;;;;;4951444;28;20018;-53
2024/02/06 08:38:43;;;;;;;6.25;2.58;;;8.70;99.90;;;;;;4939947;28;20558;-48
2024/02/06 08:41:08;;;;;;;6.80;2.55;;;8.70;99.90;;;;;;4949113;28;21596;-47
2024/02/06 08:43:34;;;;;;;8.65;2.88;;;8.80;99.90;;;;;;4992216;28;20537;-54
2024/02/06 08:46:00;;;;;;;7.13;2.50;;;8.80;99.90;;;;;;4943954;28;20026;-53
2024/02/06 08:48:28;;;;;;;7.50;2.50;;;8.80;99.90;;;;;;4945384;28;20040;-48
2024/02/06 08:50:54;;;;;;;8.63;3.33;;;8.80;99.90;;;;;;4916257;28;20058;-49
2024/02/06 08:53:20;;;;;;;6.40;2.97;;;8.80;99.90;;;;;;4924441;28;20173;-50
2024/02/06 08:55:45;;;;;;;7.45;2.33;;;8.90;99.90;;;;;;4970542;28;20514;-48
2024/02/06 08:58:11;;;;;;;8.82;2.80;;;8.90;99.90;;;;;;4915072;28;20033;-46
2024/02/06 09:00:36;;;;;;;5.63;2.30;;;8.90;99.90;;;;;;4937968;28;20025;-49
2024/02/06 09:03:02;;;;;;;4.82;2.17;;;8.90;99.90;;;;;;4934456;28;20034;-48
2024/02/06 09:05:28;;;;;;;7.82;3.00;;;8.90;99.90;;;;;;4937728;28;20030;-50
2024/02/06 09:07:55;;;;;;;6.68;2.78;;;9.00;99.90;;;;;;4913244;28;20053;-57
2024/02/06 09:10:20;;;;;;;10.40;3.03;;;9.00;99.90;;;;;;4973119;28;20478;-51
2024/02/06 09:12:46;;;;;;;6.10;2.92;;;9.00;99.90;;;;;;4939567;28;20026;-52
2024/02/06 09:15:12;;;;;;;8.63;2.60;;;9.00;99.90;;;;;;4943296;28;20479;-50
2024/02/06 09:17:38;;;;;;;7.35;2.25;;;9.00;99.90;;;;;;4941796;28;20064;-49
2024/02/06 09:20:05;;;;;;;6.07;2.83;;;9.10;99.90;;;;;;4925195;28;20510;-53
2024/02/06 09:22:31;;;;;;;7.85;2.42;;;9.10;99.90;;;;;;4981533;28;20026;-48
2024/02/06 09:24:57;;;;;;;4.53;2.78;;;9.10;99.90;;;;;;4936934;28;20556;-52
2024/02/06 09:27:22;;;;;;;6.68;3.28;;;9.10;99.90;;;;;;4915087;28;20423;-51
2024/02/06 09:29:48;;;;;;;6.60;2.30;;;9.10;99.90;;;;;;4928295;28;20030;-50
2024/02/06 09:32:14;;;;;;;6.22;2.92;;;9.10;99.90;;;;;;4918537;28;22487;-50
2024/02/06 09:34:40;;;;;;;9.90;3.35;;;9.10;99.90;;;;;;4956117;28;20026;-52
2024/02/06 09:37:05;;;;;;;8.40;2.90;;;9.10;99.90;;;;;;4916611;28;20034;-57
2024/02/06 09:39:31;;;;;;;10.57;3.10;;;9.10;99.90;;;;;;4919253;28;20030;-48
2024/02/06 09:42:01;;;;;;;8.88;2.83;;;9.10;99.90;;;;;;4923191;28;20025;-50
2024/02/06 09:44:28;;;;;;;6.63;3.80;;;9.10;99.90;;;;;;4921314;28;20019;-49
2024/02/06 09:46:59;;;;;;;8.73;3.92;;;9.10;99.90;;;;;;4954670;28;20117;-56
2024/02/06 09:49:26;;;;;;;7.47;3.40;;;9.10;99.90;;;;;;4990173;28;20486;-48
2024/02/06 09:51:52;;;;;;;9.77;3.70;;;9.10;99.90;;;;;;4931692;28;20034;-51
2024/02/06 09:54:20;;;;;;;8.98;3.10;;;9.10;99.90;;;;;;4902806;28;20033;-56
2024/02/06 09:56:47;;;;;;;6.20;3.10;;;9.10;99.90;;;;;;4922600;28;20080;-46
2024/02/06 09:59:14;;;;;;;5.25;2.50;;;9.10;99.90;;;;;;4929559;28;21591;-47
2024/02/06 10:01:42;;;;;;;7.93;3.03;;;9.10;99.90;;;;;;4991423;28;20084;-51
2024/02/06 10:04:11;;;;;;;6.43;3.17;;;9.20;99.90;;;;;;4907445;28;20041;-46
2024/02/06 10:06:36;;;;;;;7.25;3.25;;;9.10;99.90;;;;;;4907625;28;20109;-47
2024/02/06 10:09:02;;;;;;;6.13;3.78;;;9.10;99.90;;;;;;4910891;28;20655;-47
2024/02/06 10:11:33;;;;;;;6.57;2.75;;;9.10;99.90;;;;;;4918433;28;20116;-49
2024/02/06 10:14:00;;;;;;;2.78;2.00;;;9.20;99.90;;;;;;4919963;28;20117;-56
2024/02/06 10:16:26;;;;;;;6.68;3.33;;;9.20;99.90;;;;;;4942148;28;20077;-51
2024/02/06 10:18:53;;;;;;;3.90;2.05;;;9.10;99.90;;;;;;4935331;28;20570;-50
2024/02/06 10:21:19;;;;;;;5.13;2.28;;;9.10;99.90;;;;;;4938382;28;20049;-48
2024/02/06 10:23:46;;;;;;;4.45;2.22;;;9.20;99.90;;;;;;4897882;28;20039;-56
2024/02/06 10:26:19;;;;;;;4.35;2.70;;;9.10;99.90;;;;;;4975398;28;22206;-52
2024/02/06 10:28:45;;;;;;;5.22;2.22;;;9.10;99.90;;;;;;4956824;28;20401;-47
2024/02/06 10:31:14;;;;;;;6.05;2.30;;;9.10;99.90;;;;;;4938831;28;20042;-48
2024/02/06 10:33:40;;;;;;;5.30;1.80;;;9.20;99.90;;;;;;4935791;28;20030;-51
2024/02/06 10:36:06;;;;;;;6.50;1.73;;;9.10;99.90;;;;;;4898464;28;21596;-52
2024/02/06 10:38:32;;;;;;;4.68;2.58;;;9.10;99.90;;;;;;4974126;28;20026;-55
2024/02/06 10:40:58;;;;;;;7.05;2.00;;;9.10;99.90;;;;;;4925089;28;20042;-55
2024/02/06 10:43:30;;;;;;;3.10;1.85;;;9.10;99.90;;;;;;4947424;28;20077;-50
2024/02/06 10:46:01;;;;;;;10.25;5.03;;;9.10;99.90;;;;;;4953109;28;20042;-47
2024/02/06 10:48:27;;;;;;;4.20;2.67;;;9.10;99.90;;;;;;4920974;28;20029;-52
2024/02/06 10:50:58;;;;;;;5.50;2.58;;;9.10;99.90;;;;;;4930574;28;20070;-48
2024/02/06 10:53:24;;;;;;;3.47;2.50;;;9.10;99.90;;;;;;4936875;28;22669;-48
2024/02/06 10:55:54;;;;;;;4.85;2.30;;;9.20;99.90;;;;;;4982932;28;20038;-47
2024/02/06 10:58:24;;;;;;;3.67;1.70;;;9.20;99.90;;;;;;4954920;28;20022;-46
2024/02/06 11:00:52;;;;;;;3.97;2.50;;;9.20;99.90;;;;;;4904926;28;20030;-50
2024/02/06 11:03:19;;;;;;;6.20;2.83;;;9.20;99.90;;;;;;4951006;28;20545;-53
2024/02/06 11:05:54;;;;;;;5.75;2.00;;;9.10;99.90;;;;;;4919720;28;20521;-57
2024/02/06 11:08:21;;;;;;;4.20;2.80;;;9.20;99.90;;;;;;4953829;28;21803;-47
2024/02/06 11:10:51;;;;;;;6.72;2.40;;;9.20;99.90;;;;;;4978572;28;20041;-47
2024/02/06 11:13:36;;;;;;;7.30;2.28;;;9.20;99.90;;;;;;4920785;28;20120;-55
2024/02/06 11:16:08;;;;;;;8.50;2.20;;;9.20;99.90;;;;;;4939049;28;20499;-47
2024/02/06 11:18:42;;;;;;;7.00;2.17;;;9.20;99.90;;;;;;4886654;28;20484;-47
2024/02/06 11:21:10;;;;;;;4.82;2.30;;;9.20;99.90;;;;;;4917005;28;22234;-48
2024/02/06 11:23:36;;;;;;;5.10;2.10;;;9.20;99.90;;;;;;4935060;28;20022;-51
2024/02/06 11:26:02;;;;;;;9.85;2.70;;;9.20;99.90;;;;;;4902094;28;20034;-56
2024/02/06 11:28:29;;;;;;;8.10;2.72;;;9.20;99.90;;;;;;4967414;28;20034;-50
2024/02/06 11:30:59;;;;;;;8.15;2.78;;;9.30;99.90;;;;;;4959412;28;20454;-48
2024/02/06 11:33:31;;;;;;;5.05;2.20;;;9.30;99.90;;;;;;4966706;28;20096;-49
2024/02/06 11:36:14;;;;;;;7.80;2.03;;;9.40;99.90;;;;;;4968209;28;20038;-52
2024/02/06 11:38:40;;;;;;;8.05;2.35;;;9.40;99.90;;;;;;4996386;28;20038;-48
2024/02/06 11:41:13;;;;;;;7.40;2.35;;;9.40;99.90;;;;;;4959869;28;20038;-50
2024/02/06 11:43:39;;;;;;;6.43;2.95;;;9.40;99.90;;;;;;4973546;28;20026;-54
2024/02/06 11:46:04;;;;;;;3.60;1.65;;;9.50;99.90;;;;;;4937387;28;20395;-51
2024/02/06 11:48:30;;;;;;;8.90;3.20;;;9.50;99.90;;;;;;4944424;28;20655;-48
2024/02/06 11:50:56;;;;;;;9.10;3.40;;;9.60;99.90;;;;;;4920975;28;20096;-48
2024/02/06 11:53:26;;;;;;;15.20;4.32;;;9.60;99.90;;;;;;4999461;28;20119;-51
2024/02/06 11:55:53;;;;;;;10.57;3.17;;;9.60;99.90;;;;;;4941518;28;20057;-52
2024/02/06 11:58:18;;;;;;;8.18;2.85;;;9.70;99.90;;;;;;4937876;28;20030;-49
2024/02/06 12:00:44;;;;;;;7.53;2.83;;;9.70;99.90;;;;;;4926889;28;20042;-49
2024/02/06 12:03:13;;;;;;;8.65;3.45;;;9.70;99.90;;;;;;4940352;28;20034;-53
2024/02/06 12:05:40;;;;;;;6.35;3.13;;;9.70;99.90;;;;;;4976403;28;20026;-48
2024/02/06 12:08:06;;;;;;;10.13;3.03;;;9.80;99.90;;;;;;4944546;28;20033;-56
2024/02/06 12:10:33;;;;;;;6.30;2.40;;;9.80;99.90;;;;;;4962258;28;20045;-48
2024/02/06 12:13:06;;;;;;;10.02;3.13;;;9.80;99.90;;;;;;4950989;28;20482;-54
2024/02/06 12:15:36;;;;;;;4.90;2.53;;;9.80;99.90;;;;;;4956537;28;20068;-48
2024/02/06 12:18:07;;;;;;;7.20;2.30;;;9.80;99.90;;;;;;4924684;28;21438;-54
2024/02/06 12:20:33;;;;;;;8.70;2.70;;;9.80;99.90;;;;;;4987085;28;20018;-49
2024/02/06 12:23:05;;;;;;;8.50;2.17;;;9.80;99.90;;;;;;4965171;28;20034;-48
2024/02/06 12:25:32;;;;;;;7.97;2.78;;;9.90;99.90;;;;;;4944128;28;20060;-52
2024/02/06 12:28:12;;;;;;;9.75;2.50;;;9.90;99.90;;;;;;4932504;28;20064;-47
2024/02/06 12:30:40;;;;;;;6.22;1.67;;;9.90;99.90;;;;;;4955645;28;20061;-50
2024/02/06 12:33:05;;;;;;;7.53;2.60;;;9.90;99.90;;;;;;4932010;28;20167;-46
2024/02/06 12:35:34;;;;;;;6.70;2.25;;;9.90;99.90;;;;;;4999233;28;20022;-46
2024/02/06 12:38:01;;;;;;;8.70;2.80;;;10.00;99.90;;;;;;4950814;28;20028;-48
2024/02/06 12:40:27;;;;;;;5.70;1.85;;;10.00;99.90;;;;;;4932042;28;20081;-48
2024/02/06 12:42:53;;;;;;;9.32;2.67;;;10.00;99.90;;;;;;4926539;28;20028;-46
2024/02/06 12:45:19;;;;;;;3.95;1.55;;;10.00;99.90;;;;;;4926518;28;20029;-51
2024/02/06 12:47:46;;;;;;;4.20;1.92;;;10.10;99.90;;;;;;4960728;28;20034;-55